Home > Products > Valid Products > TAF

000
FTUS46 KSTO 110525
TAFRBL
TAF
KRBL 110525Z 1106/1206 33007KT P6SM BKN200=



000
FTUS46 KSTO 110525
TAFSAC
TAF
KSAC 110525Z 1106/1206 32005KT P6SM BKN250
     FM111000 VRB03KT 4SM BR BKN250
      TEMPO 1114/1118 1SM BR
     FM112100 VRB03KT P6SM SCT250=



000
FTUS46 KSTO 110525
TAFMHR
TAF
KMHR 110525Z 1106/1206 33005KT P6SM BKN250
     FM111400 VRB03KT 4SM BR BKN250
     FM111800 VRB03KT P6SM SCT250=



000
FTUS46 KSTO 110525
TAFSMF
TAF
KSMF 110525Z 1106/1206 33006KT P6SM BKN250
     FM111000 VRB03KT 4SM BR BKN250
      TEMPO 1114/1118 1SM BR
     FM112100 VRB03KT P6SM SCT250=



000
FTUS46 KSTO 110525
TAFRDD
TAF
KRDD 110525Z 1106/1206 VRB05KT P6SM BKN200=



000
FTUS46 KSTO 110525
TAFSCK
TAF
KSCK 110525Z 1106/1206 VRB03KT P6SM BKN250
     FM111000 VRB03KT 4SM BR BKN250
      TEMPO 1113/1117 1/2SM FG OVC010
     FM112100 VRB03KT P6SM SCT250=



000
FTUS46 KSTO 110525
TAFRDD
TAF
KRDD 110525Z 1106/1206 VRB05KT P6SM BKN200=



000
FTUS46 KSTO 110525
TAFSMF
TAF
KSMF 110525Z 1106/1206 33006KT P6SM BKN250
     FM111000 VRB03KT 4SM BR BKN250
      TEMPO 1114/1118 1SM BR
     FM112100 VRB03KT P6SM SCT250=



000
FTUS46 KSTO 110525
TAFMHR
TAF
KMHR 110525Z 1106/1206 33005KT P6SM BKN250
     FM111400 VRB03KT 4SM BR BKN250
     FM111800 VRB03KT P6SM SCT250=



000
FTUS46 KSTO 110525
TAFSAC
TAF
KSAC 110525Z 1106/1206 32005KT P6SM BKN250
     FM111000 VRB03KT 4SM BR BKN250
      TEMPO 1114/1118 1SM BR
     FM112100 VRB03KT P6SM SCT250=



000
FTUS46 KSTO 110525
TAFRBL
TAF
KRBL 110525Z 1106/1206 33007KT P6SM BKN200=



000
FTUS46 KSTO 110525
TAFSCK
TAF
KSCK 110525Z 1106/1206 VRB03KT P6SM BKN250
     FM111000 VRB03KT 4SM BR BKN250
      TEMPO 1113/1117 1/2SM FG OVC010
     FM112100 VRB03KT P6SM SCT250=



000
FTUS46 KSTO 102324
TAFSMF
TAF
KSMF 102324Z 1100/1124 33006KT P6SM BKN250
     FM111000 VRB03KT 4SM BR BKN250
      TEMPO 1114/1118 1SM BR=



000
FTUS46 KSTO 102324
TAFMHR
TAF
KMHR 102324Z 1100/1124 33005KT P6SM BKN250
     FM111300 VRB03KT 4SM BR BKN250=



000
FTUS46 KSTO 102324
TAFMHR
TAF
KMHR 102324Z 1100/1124 33005KT P6SM BKN250
     FM111300 VRB03KT 4SM BR BKN250=



000
FTUS46 KSTO 102324
TAFSMF
TAF
KSMF 102324Z 1100/1124 33006KT P6SM BKN250
     FM111000 VRB03KT 4SM BR BKN250
      TEMPO 1114/1118 1SM BR=



000
FTUS46 KSTO 102324
TAFRBL
TAF
KRBL 102324Z 1100/1124 33007KT P6SM BKN200=



000
FTUS46 KSTO 102324
TAFSCK
TAF
KSCK 102324Z 1100/1124 32006KT P6SM BKN250
     FM110500 VRB03KT 4SM BR BKN250
      TEMPO 1113/1117 1/2SM FG OVC001=



000
FTUS46 KSTO 102324
TAFSAC
TAF
KSAC 102324Z 1100/1124 32005KT P6SM BKN250
     FM111000 VRB03KT 4SM BR BKN250
      TEMPO 1114/1118 1SM BR=



000
FTUS46 KSTO 102324
TAFRDD
TAF
KRDD 102324Z 1100/1124 VRB05KT P6SM BKN200=



000
FTUS46 KSTO 102324
TAFSAC
TAF
KSAC 102324Z 1100/1124 32005KT P6SM BKN250
     FM111000 VRB03KT 4SM BR BKN250
      TEMPO 1114/1118 1SM BR=



000
FTUS46 KSTO 102324
TAFSCK
TAF
KSCK 102324Z 1100/1124 32006KT P6SM BKN250
     FM110500 VRB03KT 4SM BR BKN250
      TEMPO 1113/1117 1/2SM FG OVC001=



000
FTUS46 KSTO 102324
TAFRBL
TAF
KRBL 102324Z 1100/1124 33007KT P6SM BKN200=



000
FTUS46 KSTO 102324
TAFRDD
TAF
KRDD 102324Z 1100/1124 VRB05KT P6SM BKN200=



000
FTUS46 KSTO 101735
TAFMHR
TAF
KMHR 101735Z 1018/1118 33005KT P6SM BKN250
      TEMPO 1113/1117 4SM BR=



000
FTUS46 KSTO 101735
TAFRBL
TAF
KRBL 101735Z 1018/1118 33007KT P6SM BKN200=



000
FTUS46 KSTO 101735
TAFSMF
TAF
KSMF 101735Z 1018/1118 33006KT P6SM BKN250
     FM111300 VRB03KT 3SM BR BKN250=



000
FTUS46 KSTO 101735
TAFRDD
TAF
KRDD 101735Z 1018/1118 VRB05KT P6SM BKN200=



000
FTUS46 KSTO 101735
TAFSCK
TAF
KSCK 101735Z 1018/1118 VRB03KT 3SM BR BKN250
     FM101900 32004KT 6SM HZ BKN250
     FM102000 32006KT P6SM BKN250
     FM110500 VRB03KT 5SM BR BKN250
      TEMPO 1113/1117 1/4SM FG OVC001=



000
FTUS46 KSTO 101735
TAFSAC
TAF
KSAC 101735Z 1018/1118 32005KT P6SM BKN250
     FM111400 VRB03KT 3SM BR BKN250
      TEMPO 1114/1118 1SM BR=



000
FTUS46 KSTO 101454 AAB
TAFSAC
TAF AMD
KSAC 101454Z 1015/1112 00000KT 4SM BR BCFG SCT250
     FM101700 32004KT P6SM BKN250=



000
FTUS46 KSTO 101454 AAB
TAFSAC
TAF AMD
KSAC 101454Z 1015/1112 00000KT 4SM BR BCFG SCT250
     FM101700 32004KT P6SM BKN250=



000
FTUS46 KSTO 101340 AAA
TAFSCK
TAF AMD
KSCK 101340Z 1014/1112 VRB03KT 2SM BR SKC
      TEMPO 1014/1016 1/4SM FG VV002
     FM101700 31004KT P6SM SCT250
     FM111100 VRB02KT 2SM BR BCFG SCT002=



000
FTUS46 KSTO 101340 AAA
TAFSCK
TAF AMD
KSCK 101340Z 1014/1112 VRB03KT 2SM BR SKC
      TEMPO 1014/1016 1/4SM FG VV002
     FM101700 31004KT P6SM SCT250
     FM111100 VRB02KT 2SM BR BCFG SCT002=



000
FTUS46 KSTO 101307 AAA
TAFSAC
TAF AMD
KSAC 101307Z 1013/1112 00000KT 4SM BR SCT250
      TEMPO 1013/1016 1/2SM FG
     FM101700 32004KT P6SM BKN250=



000
FTUS46 KSTO 101307 AAA
TAFSAC
TAF AMD
KSAC 101307Z 1013/1112 00000KT 4SM BR SCT250
      TEMPO 1013/1016 1/2SM FG
     FM101700 32004KT P6SM BKN250=



000
FTUS46 KSTO 101120
TAFMHR
TAF
KMHR 101120Z 1012/1112 VRB04KT P6SM SCT250
      TEMPO 1014/1016 5SM BR=



000
FTUS46 KSTO 101120
TAFRBL
TAF
KRBL 101120Z 1012/1112 32004KT P6SM SCT250=



000
FTUS46 KSTO 101120
TAFSMF
TAF
KSMF 101120Z 1012/1112 VRB04KT P6SM SCT250
      TEMPO 1014/1016 3SM BR MIFG=



000
FTUS46 KSTO 101120
TAFSAC
TAF
KSAC 101120Z 1012/1112 VRB05KT P6SM SCT250
      TEMPO 1014/1016 4SM BR=



000
FTUS46 KSTO 101120
TAFRDD
TAF
KRDD 101120Z 1012/1112 34004KT P6SM SCT250=



000
FTUS46 KSTO 101120
TAFSCK
TAF
KSCK 101120Z 1012/1112 VRB03KT 3SM BR SKC
      TEMPO 1014/1016 2SM BR BCFG SCT002
     FM101700 31004KT P6SM SCT250
     FM111100 VRB02KT 2SM BR BCFG SCT002=



000
FTUS46 KSTO 100523
TAFSMF
TAF
KSMF 100523Z 1006/1106 VRB05KT P6SM SCT250
      TEMPO 1013/1017 4SM BR=



000
FTUS46 KSTO 100523
TAFMHR
TAF
KMHR 100523Z 1006/1106 VRB04KT P6SM SCT250
      TEMPO 1013/1017 4SM BR=



000
FTUS46 KSTO 100523
TAFSCK
TAF
KSCK 100523Z 1006/1106 VRB04KT P6SM SCT250
     FM101100 VRB03KT 2SM BR BCFG SCT002
      AMD NOT SKED=



000
FTUS46 KSTO 100523
TAFRBL
TAF
KRBL 100523Z 1006/1106 32004KT P6SM SCT250=



000
FTUS46 KSTO 100523
TAFSAC
TAF
KSAC 100523Z 1006/1106 VRB05KT P6SM SCT250
      TEMPO 1013/1017 4SM BR=



000
FTUS46 KSTO 100523
TAFRDD
TAF
KRDD 100523Z 1006/1106 VRB04KT P6SM SCT250=



000
FTUS46 KSTO 092326
TAFRBL
TAF
KRBL 092326Z 1000/1024 32004KT P6SM FEW250=



000
FTUS46 KSTO 092326
TAFMHR
TAF
KMHR 092326Z 1000/1024 VRB04KT P6SM FEW250
      TEMPO 1013/1017 4SM BR=



000
FTUS46 KSTO 092326
TAFSAC
TAF
KSAC 092326Z 1000/1024 34005KT P6SM FEW250
      TEMPO 1013/1017 4SM BR=



000
FTUS46 KSTO 092326
TAFRBL
TAF
KRBL 092326Z 1000/1024 32004KT P6SM FEW250=



000
FTUS46 KSTO 092326
TAFRDD
TAF
KRDD 092326Z 1000/1024 VRB04KT P6SM FEW250=



000
FTUS46 KSTO 092326
TAFMHR
TAF
KMHR 092326Z 1000/1024 VRB04KT P6SM FEW250
      TEMPO 1013/1017 4SM BR=



000
FTUS46 KSTO 092326
TAFSCK
TAF
KSCK 092326Z 1000/1024 VRB04KT P6SM FEW250
     FM101100 VRB03KT 2SM BR BCFG SCT002=



000
FTUS46 KSTO 092326
TAFSMF
TAF
KSMF 092326Z 1000/1024 32006KT P6SM FEW250
      TEMPO 1013/1017 4SM BR=



000
FTUS46 KSTO 092326
TAFRDD
TAF
KRDD 092326Z 1000/1024 VRB04KT P6SM FEW250=



000
FTUS46 KSTO 092326
TAFSAC
TAF
KSAC 092326Z 1000/1024 34005KT P6SM FEW250
      TEMPO 1013/1017 4SM BR=



000
FTUS46 KSTO 092326
TAFSMF
TAF
KSMF 092326Z 1000/1024 32006KT P6SM FEW250
      TEMPO 1013/1017 4SM BR=



000
FTUS46 KSTO 092326
TAFSCK
TAF
KSCK 092326Z 1000/1024 VRB04KT P6SM FEW250
     FM101100 VRB03KT 2SM BR BCFG SCT002=



000
FTUS46 KSTO 091725
TAFRDD
TAF
KRDD 091725Z 0918/1018 36004KT P6SM FEW250=



000
FTUS46 KSTO 091725
TAFSAC
TAF
KSAC 091725Z 0918/1018 34005KT P6SM FEW250
      TEMPO 1013/1017 4SM BR=



000
FTUS46 KSTO 091725
TAFMHR
TAF
KMHR 091725Z 0918/1018 33004KT P6SM FEW250=



000
FTUS46 KSTO 091725
TAFSCK
TAF
KSCK 091725Z 0918/1018 VRB04KT 4SM BR FEW250
     FM091900 VRB04KT P6SM FEW250
     FM101100 VRB03KT 2SM BR BCFG SCT002=



000
FTUS46 KSTO 091725
TAFSMF
TAF
KSMF 091725Z 0918/1018 35004KT P6SM FEW250
      TEMPO 1013/1017 4SM BR=



000
FTUS46 KSTO 091725
TAFRBL
TAF
KRBL 091725Z 0918/1018 34006KT P6SM FEW250=



000
FTUS46 KSTO 091521 AAB
TAFSMF
TAF AMD
KSMF 091521Z 0915/1012 34004KT 4SM BR BCFG SKC
     FM091800 35004KT P6SM FEW250=



000
FTUS46 KSTO 091436 AAA
TAFSAC
TAF AMD
KSAC 091436Z 0915/1012 VRB03KT 6SM BR SKC
      TEMPO 0915/0917 3SM BR BCFG SCT002
     FM091800 34005KT P6SM SCT250=



000
FTUS46 KSTO 091425 AAA
TAFSMF
TAF AMD
KSMF 091425Z 0914/1012 34004KT 4SM BR BCFG SKC
      TEMPO 0915/0917 1/2SM FG BKN002
     FM091800 35004KT P6SM FEW250=



000
FTUS46 KSTO 091425 AAA
TAFSCK
TAF AMD
KSCK 091425Z 0914/1012 VRB04KT P6SM SKC
      TEMPO 0914/0917 4SM BR BCFG SCT002
     FM092100 33003KT P6SM SKC
     FM101100 VRB03KT 2SM BR BCFG SCT002=



000
FTUS46 KSTO 091141
TAFRBL
TAF
KRBL 091141Z 0912/1012 32006KT P6SM SKC=



000
FTUS46 KSTO 091141
TAFRDD
TAF
KRDD 091141Z 0912/1012 34005KT P6SM SKC=



000
FTUS46 KSTO 091141
TAFMHR
TAF
KMHR 091141Z 0912/1012 33004KT P6SM SKC
      TEMPO 0914/0916 4SM BR SKC=



000
FTUS46 KSTO 091141
TAFSCK
TAF
KSCK 091141Z 0912/1012 VRB04KT P6SM SKC
     FM091400 VRB03KT 5SM BR SKC
      TEMPO 0914/0917 2SM BR BCFG SCT002
     FM092100 33003KT P6SM SKC
     FM101100 VRB03KT 2SM BR BCFG SCT002=



000
FTUS46 KSTO 091141
TAFSMF
TAF
KSMF 091141Z 0912/1012 VRB04KT P6SM SKC
     FM091300 VRB03KT 4SM BR BCFG SCT003
      TEMPO 0914/0917 1/2SM FG BKN002
     FM091800 35004KT P6SM FEW250=



000
FTUS46 KSTO 091141
TAFSAC
TAF
KSAC 091141Z 0912/1012 VRB03KT P6SM SKC
     FM091400 VRB03KT 4SM BR SKC
      TEMPO 0914/0916 1SM BR SCT002
     FM092000 34005KT P6SM SCT250=



000
FTUS46 KSTO 090532
TAFSMF
TAF
KSMF 090532Z 0906/1006 VRB04KT P6SM SKC
     FM091000 VRB03KT 4SM BR SKC
      TEMPO 0913/0917 1SM BR SCT002
     FM092000 35004KT P6SM FEW250=



000
FTUS46 KSTO 090532
TAFRDD
TAF
KRDD 090532Z 0906/1006 34005KT P6SM SKC=



000
FTUS46 KSTO 090532
TAFRBL
TAF
KRBL 090532Z 0906/1006 32006KT P6SM SKC=



000
FTUS46 KSTO 090532
TAFSAC
TAF
KSAC 090532Z 0906/1006 VRB03KT P6SM SKC
     FM091000 VRB03KT 4SM BR SKC
      TEMPO 0913/0917 1SM BR SCT002
     FM092000 34005KT P6SM SCT250=



000
FTUS46 KSTO 090532
TAFSCK
TAF
KSCK 090532Z 0906/1006 VRB04KT P6SM SKC
     FM091000 VRB03KT 3SM BR SKC
      TEMPO 0913/0917 1SM BR SCT002
     FM092100 33003KT P6SM SKC=



000
FTUS46 KSTO 090532
TAFMHR
TAF
KMHR 090532Z 0906/1006 33004KT P6SM SKC
     FM090900 VRB03KT 4SM BR SKC
     FM092000 31004KT P6SM SCT250
      AMD NOT SKED=



000
FTUS46 KSTO 082330
TAFMHR
TAF
KMHR 082330Z 0900/0924 33004KT P6SM SKC
     FM090900 VRB03KT 4SM BR SKC=



000
FTUS46 KSTO 082330
TAFSMF
TAF
KSMF 082330Z 0900/0924 VRB04KT P6SM SKC
     FM091000 VRB03KT 4SM BR SKC
      TEMPO 0913/0917 1SM BR SCT002=



000
FTUS46 KSTO 082330
TAFRBL
TAF
KRBL 082330Z 0900/0924 35012KT P6SM SKC
     FM090500 33006KT P6SM SKC=



000
FTUS46 KSTO 082330
TAFSCK
TAF
KSCK 082330Z 0900/0924 VRB04KT P6SM SKC
     FM091000 VRB03KT 3SM BR SKC
      TEMPO 0913/0917 1SM BR SCT002=



000
FTUS46 KSTO 082330
TAFRDD
TAF
KRDD 082330Z 0900/0924 01012KT P6SM SKC
     FM090300 34005KT P6SM SKC=



000
FTUS46 KSTO 082330
TAFSAC
TAF
KSAC 082330Z 0900/0924 01006KT P6SM SKC
     FM091000 VRB03KT 4SM BR SKC
      TEMPO 0913/0917 1SM BR SCT002=



000
FTUS46 KSTO 082330
TAFRBL
TAF
KRBL 082330Z 0900/0924 35012KT P6SM SKC
     FM090500 33006KT P6SM SKC=



000
FTUS46 KSTO 082330
TAFSMF
TAF
KSMF 082330Z 0900/0924 VRB04KT P6SM SKC
     FM091000 VRB03KT 4SM BR SKC
      TEMPO 0913/0917 1SM BR SCT002=



000
FTUS46 KSTO 082330
TAFMHR
TAF
KMHR 082330Z 0900/0924 33004KT P6SM SKC
     FM090900 VRB03KT 4SM BR SKC=



000
FTUS46 KSTO 082330
TAFSCK
TAF
KSCK 082330Z 0900/0924 VRB04KT P6SM SKC
     FM091000 VRB03KT 3SM BR SKC
      TEMPO 0913/0917 1SM BR SCT002=



000
FTUS46 KSTO 082330
TAFRDD
TAF
KRDD 082330Z 0900/0924 01012KT P6SM SKC
     FM090300 34005KT P6SM SKC=



000
FTUS46 KSTO 082330
TAFSAC
TAF
KSAC 082330Z 0900/0924 01006KT P6SM SKC
     FM091000 VRB03KT 4SM BR SKC
      TEMPO 0913/0917 1SM BR SCT002=



000
FTUS46 KSTO 081723
TAFSCK
TAF
KSCK 081723Z 0818/0918 VRB04KT 5SM BR SKC
     FM081900 30005KT P6SM SKC
     FM091000 VRB03KT 3SM BR SKC
      TEMPO 0913/0917 1SM BR SCT002=



000
FTUS46 KSTO 081723
TAFRDD
TAF
KRDD 081723Z 0818/0918 01012KT P6SM SKC
     FM082200 36006KT P6SM SKC=



000
FTUS46 KSTO 081723
TAFRBL
TAF
KRBL 081723Z 0818/0918 35012KT P6SM SKC
     FM082300 35006KT P6SM SKC=



000
FTUS46 KSTO 081723
TAFSMF
TAF
KSMF 081723Z 0818/0918 33006KT P6SM SKC
     FM091000 VRB03KT 4SM BR SKC
      TEMPO 0913/0917 1SM BR SCT002=



000
FTUS46 KSTO 081723
TAFSAC
TAF
KSAC 081723Z 0818/0918 33006KT P6SM SKC
     FM091000 VRB03KT 4SM BR SKC
      TEMPO 0913/0917 1SM BR SCT002=



000
FTUS46 KSTO 081723
TAFMHR
TAF
KMHR 081723Z 0818/0918 33004KT P6SM SKC=



000
FTUS46 KSTO 081703 AAC
TAFSMF
TAF AMD
KSMF 081703Z 0817/0912 33007KT P6SM SKC=



000
FTUS46 KSTO 081703 AAB
TAFSCK
TAF AMD
KSCK 081703Z 0817/0912 VRB03KT 4SM BR SCT003
     FM081800 30006KT P6SM SKC=



000
FTUS46 KSTO 081557 AAB
TAFSMF
TAF AMD
KSMF 081557Z 0816/0912 VRB03KT 2SM BCFG SCT003
      TEMPO 0816/0817 1/4SM FG OVC001
     FM081700 VRB04KT 4SM BR SCT003
     FM081830 33007KT P6SM SKC=



000
FTUS46 KSTO 081557 AAA
TAFSAC
TAF AMD
KSAC 081557Z 0816/0912 00000KT 2SM BR BCFG SKC
      TEMPO 0816/0817 1/2SM FG OVC002
     FM081800 33006KT P6SM SKC=



000
FTUS46 KSTO 081538 AAA
TAFMHR
TAF AMD
KMHR 081538Z 0816/0912 33004KT P6SM SKC=



000
FTUS46 KSTO 081538 AAA
TAFMHR
TAF AMD
KMHR 081538Z 0816/0912 33004KT P6SM SKC=



000
FTUS46 KSTO 081303 AAA
TAFSCK
TAF AMD
KSCK 081303Z 0813/0912 VRB03KT 1SM BR BCFG SCT003
      TEMPO 0814/0817 1/4SM FG OVC002
     FM081800 30006KT P6SM SKC=



000
FTUS46 KSTO 081303 AAA
TAFSCK
TAF AMD
KSCK 081303Z 0813/0912 VRB03KT 1SM BR BCFG SCT003
      TEMPO 0814/0817 1/4SM FG OVC002
     FM081800 30006KT P6SM SKC=



000
FTUS46 KSTO 081204 AAA
TAFSMF
TAF AMD
KSMF 081204Z 0812/0912 VRB03KT 4SM BCFG SCT003
      TEMPO 0812/0816 1/2SM FG OVC002
     FM081700 33007KT P6SM SKC=



000
FTUS46 KSTO 081136
TAFSAC
TAF
KSAC 081136Z 0812/0912 00000KT 1SM BR BCFG SKC
      TEMPO 0813/0817 1/2SM FG
     FM081800 33006KT P6SM SKC=



000
FTUS46 KSTO 081136
TAFSMF
TAF
KSMF 081136Z 0812/0912 VRB03KT 6SM MIFG SKC
      TEMPO 0814/0816 1SM BR BCFG
     FM081700 33007KT P6SM SKC=



000
FTUS46 KSTO 081136
TAFRBL
TAF
KRBL 081136Z 0812/0912 35010KT P6SM SKC
     FM081700 36014G20KT P6SM FEW250
     FM082300 35006KT P6SM SKC=



000
FTUS46 KSTO 081136
TAFRBL
TAF
KRBL 081136Z 0812/0912 35010KT P6SM SKC
     FM081700 36014G20KT P6SM FEW250
     FM082300 35006KT P6SM SKC=



000
FTUS46 KSTO 081136
TAFSCK
TAF
KSCK 081136Z 0812/0912 VRB03KT 6SM BR SKC
      TEMPO 0814/0817 3SM BR
     FM081800 30006KT P6SM SKC=



000
FTUS46 KSTO 081136
TAFRDD
TAF
KRDD 081136Z 0812/0912 36010KT P6SM SKC
     FM081700 01014G20KT P6SM FEW250
     FM082200 36006KT P6SM SKC=



000
FTUS46 KSTO 081136
TAFMHR
TAF
KMHR 081136Z 0812/0912 33004KT P6SM SKC
      TEMPO 0814/0816 3SM BR MIFG=



000
FTUS46 KSTO 081136
TAFSMF
TAF
KSMF 081136Z 0812/0912 VRB03KT 6SM MIFG SKC
      TEMPO 0814/0816 1SM BR BCFG
     FM081700 33007KT P6SM SKC=



000
FTUS46 KSTO 081136
TAFRDD
TAF
KRDD 081136Z 0812/0912 36010KT P6SM SKC
     FM081700 01014G20KT P6SM FEW250
     FM082200 36006KT P6SM SKC=



000
FTUS46 KSTO 081136
TAFSCK
TAF
KSCK 081136Z 0812/0912 VRB03KT 6SM BR SKC
      TEMPO 0814/0817 3SM BR
     FM081800 30006KT P6SM SKC=



000
FTUS46 KSTO 081136
TAFSAC
TAF
KSAC 081136Z 0812/0912 00000KT 1SM BR BCFG SKC
      TEMPO 0813/0817 1/2SM FG
     FM081800 33006KT P6SM SKC=



000
FTUS46 KSTO 081136
TAFMHR
TAF
KMHR 081136Z 0812/0912 33004KT P6SM SKC
      TEMPO 0814/0816 3SM BR MIFG=



    US Dept of Commerce
    National Oceanic and Atmospheric Administration
    National Weather Service
    1325 East West Highway
    Silver Spring, MD 20910
    Page Author: NWS Internet Services Team
Disclaimer
Information Quality
Credits
Glossary
Privacy Policy
Freedom of Information Act (FOIA)
About Us
Career Opportunities